Flight Track Log - Related Links

Times and Time Zones

All times are in EDT time to prevent confusion due to time zone crossing. See the N55GP flight status page for this flight to view local times or setup timezone preferences in your user account.

Time Position Orientation Groundspeed Altitude Reporting Facility
EDT Latitude Longitude Course Direction KTS MPH feet Rate Location/Type
Tue 10:09:56 AM 25.9064 -80.2892 300° West 146 168 400  Level Miami Center
Tue 10:11:10 AM 25.9344 -80.3431 300° West 179 206 3,600 2,598 Climbing Miami Center
Tue 10:13:10 AM 25.9789 -80.2242 67° East 139 160 8,800 2,633 Climbing Miami Center
Tue 10:14:10 AM 25.9769 -80.1339 91° East 245 282 11,500 2,650 Climbing Miami Center
Tue 10:15:10 AM 25.9789 -80.0392 89° East 271 312 14,100 2,550 Climbing Miami Center
Tue 10:16:10 AM 25.9769 -79.9422 91° East 298 343 16,600 2,350 Climbing Miami Center
Tue 10:17:10 AM 25.9706 -79.8403 94° East 317 365 18,800 2,100 Climbing Miami Center
Tue 10:18:10 AM 25.9706 -79.7364 90° East 322 371 20,800 2,000 Climbing Miami Center
Tue 10:19:10 AM 25.9664 -79.6278 92° East 335 386 22,800 2,000 Climbing Miami Center
Tue 10:20:10 AM 25.9539 -79.5072 97° East 353 406 24,800 1,850 Climbing Miami Center
Tue 10:21:10 AM 25.9075 -79.4253 122° Southeast 347 399 26,500 1,750 Climbing Miami Center
Tue 10:22:10 AM 25.8444 -79.3225 124° Southeast 358 412 28,300 1,600 Climbing Miami Center
Tue 10:23:10 AM 25.7894 -79.2289 123° Southeast 363 418 29,700 1,500 Climbing Miami Center
Tue 10:24:10 AM 25.7283 -79.1333 125° Southeast 368 423 31,300 1,550 Climbing Miami Center
Tue 10:25:10 AM 25.6733 -79.0353 122° Southeast 373 429 32,800 1,350 Climbing Miami Center
Tue 10:26:10 AM 25.6161 -78.9583 130° Southeast 384 442 34,000 1,400 Climbing Miami Center
Tue 10:27:10 AM 25.5486 -78.8558 126° Southeast 384 442 35,600 1,450 Climbing Miami Center
Tue 10:28:10 AM 25.4850 -78.7603 126° Southeast 384 442 36,900 1,300 Climbing Miami Center
Tue 10:29:10 AM 25.4256 -78.6628 124° Southeast 389 448 38,200 1,150 Climbing Miami Center
Tue 10:30:10 AM 25.3642 -78.5653 125° Southeast 389 448 39,200 1,000 Climbing Miami Center
Tue 10:31:10 AM 25.3003 -78.4678 126° Southeast 389 448 40,200 950 Climbing Miami Center
Tue 10:32:10 AM 25.2367 -78.3706 126° Southeast 389 448 41,100 850 Climbing Miami Center
Tue 10:33:10 AM 25.1708 -78.2733 127° Southeast 389 448 41,900 800 Climbing Miami Center
Tue 10:34:10 AM 25.1111 -78.1739 124° Southeast 389 448 42,700 750 Climbing Miami Center
Tue 10:35:10 AM 25.0450 -78.0769 127° Southeast 389 448 43,400 600 Climbing Miami Center
Tue 10:36:10 AM 24.9789 -77.9775 126° Southeast 389 448 43,900 500 Climbing Miami Center
Tue 10:37:10 AM 24.9147 -77.8761 125° Southeast 389 448 44,400 500 Climbing Miami Center
Tue 10:38:10 AM 24.8486 -77.7772 126° Southeast 395 455 44,900 300 Climbing Miami Center
Tue 10:39:10 AM 24.7781 -77.6736 127° Southeast 406 467 45,000 50 Climbing Miami Center
Tue 10:40:10 AM 24.7097 -77.5633 124° Southeast 426 490 45,000  Level Miami Center
Tue 10:41:10 AM 24.6369 -77.4533 126° Southeast 432 497 45,000  Level Miami Center
Tue 10:42:10 AM 24.5664 -77.3408 125° Southeast 438 504 45,000  Level Miami Center
Tue 10:43:10 AM 24.4936 -77.2289 126° Southeast 444 511 45,000  Level Miami Center
Tue 10:44:10 AM 24.4186 -77.1236 128° Southeast 449 517 45,000  Level Miami Center
Tue 10:45:10 AM 24.3478 -77.0117 125° Southeast 449 517 45,000  Level Miami Center
Tue 10:46:10 AM 24.2725 -76.9044 128° Southeast 449 517 45,000  Level Miami Center
Tue 10:47:10 AM 24.2036 -76.7906 124° Southeast 449 517 45,000  Level Miami Center
Tue 10:48:10 AM 24.1322 -76.6858 127° Southeast 444 511 45,000  Level Miami Center
Tue 10:49:10 AM 24.0611 -76.5767 125° Southeast 439 505 45,000  Level Miami Center
Tue 10:50:10 AM 23.9878 -76.4700 127° Southeast 439 505 45,000  Level Miami Center
Tue 10:51:10 AM 23.9183 -76.3656 126° Southeast 431 496 45,000  Level Miami Center
Tue 10:52:10 AM 23.8469 -76.2592 126° Southeast 431 496 45,000  Level Miami Center
Tue 10:53:10 AM 23.7775 -76.1550 126° Southeast 431 496 45,000  Level Miami Center
Tue 10:54:10 AM 23.7081 -76.0486 125° Southeast 431 496 45,000  Level Miami Center
Tue 10:55:10 AM 23.6364 -75.9447 127° Southeast 431 496 45,000  Level Miami Center
Tue 10:56:10 AM 23.5689 -75.8411 125° Southeast 431 496 45,000  Level Miami Center
Tue 10:57:10 AM 23.4908 -75.7331 128° Southeast 436 502 45,000  Level Miami Center
Tue 10:58:10 AM 23.4125 -75.6158 126° Southeast 442 509 45,000  Level Miami Center
Tue 10:59:10 AM 23.3406 -75.5103 127° Southeast 436 502 45,000  Level Miami Center
Tue 11:00:10 AM 23.2706 -75.4114 128° Southeast 425 489 45,000  Level Miami Center
Tue 11:01:10 AM 23.2006 -75.3083 126° Southeast 425 489 45,000  Level Miami Center
Tue 11:02:10 AM 23.1286 -75.2053 127° Southeast 425 489 45,000  Level Miami Center
Tue 11:03:10 AM 23.0564 -75.1000 127° Southeast 425 489 45,000  Level Miami Center
Tue 11:04:10 AM 22.9861 -74.9994 127° Southeast 430 495 45,000  Level Miami Center
Tue 11:05:10 AM 22.9139 -74.8944 127° Southeast 430 495 45,000  Level Miami Center
Tue 11:06:10 AM 22.8500 -74.8031 127° Southeast 430 495 45,000  Level Miami Center
Tue 11:07:10 AM 22.7775 -74.6983 127° Southeast 430 495 45,000  Level Miami Center
Tue 11:08:10 AM 22.7069 -74.5961 127° Southeast 430 495 45,000  Level Miami Center
Tue 11:09:10 AM 22.6344 -74.4939 128° Southeast 430 495 45,000  Level Miami Center
Tue 11:10:10 AM 22.5617 -74.3939 128° Southeast 430 495 45,000  Level Miami Center
Tue 11:11:10 AM 22.4911 -74.2919 127° Southeast 430 495 45,000  Level Miami Center
Tue 11:12:10 AM 22.4225 -74.1922 127° Southeast 430 495 45,000  Level Miami Center
Tue 11:13:10 AM 22.3519 -74.0925 127° Southeast 430 495 45,000  Level Miami Center
Tue 11:14:10 AM 22.2789 -73.9908 128° Southeast 430 495 45,000  Level Miami Center
Tue 11:15:10 AM 22.2058 -73.8892 128° Southeast 430 495 45,000  Level Miami Center
Tue 11:16:10 AM 22.1350 -73.7856 126° Southeast 430 495 45,000  Level Miami Center
Tue 11:17:10 AM 22.0661 -73.6842 126° Southeast 425 489 45,000  Level Miami Center
Tue 11:18:10 AM 21.9931 -73.5828 128° Southeast 425 489 45,000  Level Miami Center
Tue 11:19:10 AM 21.9217 -73.4794 127° Southeast 435 501 45,000  Level Miami Center
Tue 11:20:10 AM 21.8506 -73.3783 127° Southeast 435 501 45,000  Level Miami Center
Tue 11:21:10 AM 21.7772 -73.2775 128° Southeast 430 495 45,000  Level Miami Center
Tue 11:22:10 AM 21.7058 -73.1744 127° Southeast 430 495 45,000  Level Miami Center
Tue 11:23:10 AM 21.6325 -73.0736 128° Southeast 430 495 45,000  Level Miami Center
Tue 11:24:10 AM 21.5592 -72.9733 128° Southeast 430 495 45,000  Level Miami Center
Tue 11:25:10 AM 21.4897 -72.8747 127° Southeast 430 495 45,000  Level Miami Center
Tue 11:26:10 AM 21.4161 -72.7744 128° Southeast 430 495 45,000  Level Miami Center
Tue 11:27:10 AM 21.3444 -72.6719 127° Southeast 430 495 45,000  Level Miami Center
Tue 11:28:10 AM 21.2728 -72.5717 127° Southeast 430 495 45,000  Level Miami Center
Tue 11:29:10 AM 21.1992 -72.4742 129° Southeast 430 495 45,000  Level Miami Center
Tue 11:30:10 AM 21.1297 -72.3761 127° Southeast 430 495 45,000  Level Miami Center
Tue 11:31:10 AM 21.0578 -72.2764 128° Southeast 430 495 45,000  Level Miami Center
Tue 11:32:10 AM 20.9861 -72.1789 128° Southeast 430 495 45,000  Level Miami Center
Tue 11:33:10 AM 20.9142 -72.0814 128° Southeast 430 495 45,000  Level Miami Center
Tue 11:34:10 AM 20.8422 -71.9797 127° Southeast 430 495 45,000  Level Miami Center
Tue 11:35:10 AM 20.7703 -71.8825 128° Southeast 430 495 45,000  Level Miami Center
Tue 11:36:10 AM 20.6961 -71.7811 128° Southeast 430 495 45,000  Level Miami Center
Tue 11:37:10 AM 20.6239 -71.6794 127° Southeast 430 495 45,000  Level Miami Center
Tue 11:38:10 AM 20.5397 -71.5942 136° Southeast 430 495 45,000  Level Miami Center
Tue 11:39:10 AM 20.4536 -71.5156 139° Southeast 415 478 45,000  Level Miami Center
Tue 11:40:10 AM 20.3675 -71.4350 139° Southeast 415 478 45,000  Level Miami Center
Tue 11:42:00 AM 20.2220 -71.3160 139° Southeast  Level Estimated
Tue 11:49:00 AM 19.7614 -70.7489 139° Southeast  Level FlightAware Approximate
Tue 11:50:00 AM 19.6859 -70.6792 139° Southeast  Level FlightAware Approximate
Tue 11:51:00 AM 19.6104 -70.6096 139° Southeast  Level FlightAware Approximate
Tue 11:52:00 AM 19.5373 -70.5371 137° Southeast  Level FlightAware Approximate
Tue 11:53:00 AM 19.4645 -70.4643 137° Southeast  Level FlightAware Approximate
Tue 11:54:00 AM 19.3918 -70.3916 137° Southeast  Level FlightAware Approximate
Tue 11:55:00 AM 19.3190 -70.3189 137° Southeast  Level FlightAware Approximate
Tue 11:56:00 AM 19.2462 -70.2462 137° Southeast  Level FlightAware Approximate
Tue 11:57:00 AM 19.1735 -70.1735 137° Southeast  Level FlightAware Approximate
Tue 11:58:00 AM 19.0903 -70.1204 164° South  Level FlightAware Approximate
Tue 11:59:00 AM 18.9940 -70.0915 164° South  Level FlightAware Approximate
Tue 12:00:00 PM 18.8964 -70.0693 169° South  Level FlightAware Approximate
Tue 12:01:00 PM 18.7982 -70.0491 155° Southeast  Level FlightAware Approximate
Tue 12:02:00 PM 18.7056 -70.0111 169° South  Level FlightAware Approximate
Tue 12:03:00 PM 18.6074 -69.9915 169° South  Level FlightAware Approximate
Tue 12:04:00 PM 18.5667 -69.9833 169° South  Level FlightAware Approximate
Tue 12:05:00 PM 18.5725 -69.9856 169° South  Level Estimated
Tue 12:06:00 PM 18.5667 -69.9833 169° South  Level FlightAware Approximate
Tue 12:07:00 PM 18.5725 -69.9856 169° South  Level Estimated
Tue 12:08:00 PM 18.5667 -69.9833 169° South  Level FlightAware Approximate
Tue 12:09:00 PM 18.5725 -69.9856 169° South  Level Estimated
Tue 12:10:00 PM 18.5667 -69.9833 169° South  Level FlightAware Approximate
Tue 12:11:00 PM 18.5725 -69.9856 169° South  Level Estimated
Tue 12:12:00 PM 18.5667 -69.9833 169° South  Level FlightAware Approximate
Tue 12:13:00 PM 18.5725 -69.9856 169° South  Level Estimated
Tue 12:14:00 PM 18.5667 -69.9833 169° South  Level FlightAware Approximate
Tue 12:15:00 PM 18.5725 -69.9856 169° South  Level Estimated
Tue 12:16:00 PM 18.5667 -69.9833 169° South  Level FlightAware Approximate
Tue 12:17:00 PM 18.5725 -69.9856 169° South  Level Estimated
Tue 12:18:00 PM 18.5667 -69.9833 169° South  Level FlightAware Approximate
Tue 12:19:00 PM 18.5725 -69.9856 169° South  Level Estimated
Tue 12:20:00 PM 18.5667 -69.9833 169° South  Level FlightAware Approximate
Tue 12:21:00 PM 18.5725 -69.9856 169° South  Level Estimated
Tue 12:22:00 PM 18.5667 -69.9833 169° South  Level FlightAware Approximate
Tue 12:23:00 PM 18.5725 -69.9856 169° South  Level Estimated
Tue 12:24:00 PM 18.5667 -69.9833 169° South  Level FlightAware Approximate
Tue 12:25:00 PM 18.5725 -69.9856 169° South  Level Estimated
Tue 12:26:00 PM 18.5667 -69.9833 169° South  Level FlightAware Approximate
Tue 12:27:00 PM 18.5725 -69.9856 169° South  Level Estimated
Tue 12:28:00 PM 18.5667 -69.9833 169° South  Level FlightAware Approximate

Login

Don't have an account? Register now (free) for customized features, flight alerts, and more!